Time;durP1;ratioP1;P1;durP2;ratioP2;P2;SDS_P1;SDS_P2;PMS_P1;PMS_P2;Temp;Humidity;BMP_temperature;BMP_pressure;BME280_temperature;BME280_humidity;BME280_pressure;Samples;Min_cycle;Max_cycle;Signal;HPM_P1;HPM_P2
2022/05/17 00:00:24;;;;;;;25.40;16.60;;;14.80;99.90;;;;;;5030443;28;20461;-76
2022/05/17 00:02:50;;;;;;;24.48;15.75;;;14.80;99.90;;;;;;5028849;28;21087;-77
2022/05/17 00:05:17;;;;;;;23.88;15.32;;;14.70;99.90;;;;;;5009727;28;22732;-77
2022/05/17 00:07:43;;;;;;;23.63;15.10;;;14.80;99.90;;;;;;5035009;28;20411;-77
2022/05/17 00:10:09;;;;;;;22.00;15.15;;;15.00;99.90;;;;;;5034900;28;20876;-77
2022/05/17 00:12:36;;;;;;;23.42;16.77;;;15.10;99.90;;;;;;5028707;28;20414;-76
2022/05/17 00:15:02;;;;;;;29.30;16.42;;;14.90;99.90;;;;;;5029580;28;20401;-77
2022/05/17 00:17:28;;;;;;;24.30;16.13;;;14.80;99.90;;;;;;5029909;28;20414;-77
2022/05/17 00:19:53;;;;;;;29.90;17.45;;;14.60;99.90;;;;;;5031576;28;20391;-76
2022/05/17 00:22:19;;;;;;;25.40;16.63;;;14.60;99.90;;;;;;5030868;28;20395;-77
2022/05/17 00:24:45;;;;;;;26.60;16.60;;;14.50;99.90;;;;;;5031412;28;20508;-78
2022/05/17 00:27:10;;;;;;;30.27;16.70;;;14.50;99.90;;;;;;5031369;28;20418;-78
2022/05/17 00:29:37;;;;;;;25.83;16.13;;;14.60;99.90;;;;;;5031363;28;20402;-77
2022/05/17 00:32:03;;;;;;;22.15;14.90;;;14.60;99.90;;;;;;5030412;28;20799;-77
2022/05/17 00:34:29;;;;;;;24.77;14.90;;;14.70;99.90;;;;;;5030667;28;20415;-77
2022/05/17 00:36:55;;;;;;;22.77;14.70;;;14.70;99.90;;;;;;5034994;28;20403;-76
2022/05/17 00:39:20;;;;;;;22.63;15.20;;;14.60;99.90;;;;;;5048294;28;20411;-77
2022/05/17 00:41:46;;;;;;;22.07;15.00;;;14.60;99.90;;;;;;5034267;28;20402;-76
2022/05/17 00:47:04;;;;;;;23.52;15.40;;;14.40;99.90;;;;;;5031050;28;20526;-77
2022/05/17 00:49:41;;;;;;;20.85;14.10;;;14.30;99.90;;;;;;5034350;28;20410;-77
2022/05/17 00:52:12;;;;;;;25.73;14.57;;;14.30;99.90;;;;;;5035184;28;20402;-77
2022/05/17 00:54:41;;;;;;;25.92;14.65;;;14.30;99.90;;;;;;5033555;28;20776;-77
2022/05/17 00:57:31;;;;;;;21.95;14.38;;;14.30;99.90;;;;;;5035222;28;20418;-77
2022/05/17 01:00:01;;;;;;;23.55;15.52;;;14.20;99.90;;;;;;5034299;28;20399;-76
2022/05/17 01:02:27;;;;;;;26.73;15.70;;;14.20;99.90;;;;;;5033215;28;20460;-76
2022/05/17 01:04:53;;;;;;;22.92;15.98;;;14.20;99.90;;;;;;5032977;28;20414;-75
2022/05/17 01:07:24;;;;;;;25.63;16.03;;;14.10;99.90;;;;;;5035349;28;20403;-77
2022/05/17 01:09:49;;;;;;;22.95;15.88;;;14.00;99.90;;;;;;5031813;28;20411;-77
2022/05/17 01:12:15;;;;;;;23.20;15.60;;;14.00;99.90;;;;;;5042012;28;20411;-77
2022/05/17 01:15:00;;;;;;;20.37;15.07;;;14.10;99.90;;;;;;5038263;28;20498;-77
2022/05/17 01:17:32;;;;;;;25.27;16.42;;;14.10;99.90;;;;;;5041148;28;20398;-76
2022/05/17 01:20:02;;;;;;;23.03;16.27;;;14.10;99.90;;;;;;5043227;28;20413;-77
2022/05/17 01:22:28;;;;;;;26.92;17.80;;;14.00;99.90;;;;;;5037306;28;20450;-77
2022/05/17 01:24:53;;;;;;;26.93;17.57;;;14.00;99.90;;;;;;5033505;28;20505;-78
2022/05/17 01:27:36;;;;;;;26.30;17.37;;;14.00;99.90;;;;;;5032792;28;20399;-77
2022/05/17 01:30:04;;;;;;;28.43;17.30;;;14.10;99.90;;;;;;5031788;28;20403;-77
2022/05/17 01:32:31;;;;;;;28.55;16.45;;;14.00;99.90;;;;;;5032668;28;20397;-77
2022/05/17 01:34:57;;;;;;;24.60;16.38;;;14.00;99.90;;;;;;5031763;28;20407;-77
2022/05/17 01:37:22;;;;;;;27.70;17.07;;;13.90;99.90;;;;;;5033694;28;20414;-77
2022/05/17 01:39:48;;;;;;;27.33;18.00;;;13.90;99.90;;;;;;5032198;28;20892;-77
2022/05/17 01:42:15;;;;;;;28.48;18.73;;;14.00;99.90;;;;;;5030393;28;20424;-78
2022/05/17 01:44:43;;;;;;;31.98;19.40;;;14.10;99.90;;;;;;5031263;28;20414;-77
2022/05/17 01:47:10;;;;;;;29.63;19.60;;;14.20;99.90;;;;;;5032152;28;20914;-77
2022/05/17 01:49:36;;;;;;;35.10;18.75;;;14.20;99.90;;;;;;5031720;28;20506;-76
2022/05/17 01:52:02;;;;;;;31.63;19.57;;;14.10;99.90;;;;;;5034265;28;20443;-77
2022/05/17 01:54:28;;;;;;;36.13;20.35;;;14.00;99.90;;;;;;5036055;28;20402;-74
2022/05/17 01:56:53;;;;;;;28.10;19.03;;;13.90;99.90;;;;;;5048114;28;20403;-77
2022/05/17 01:59:19;;;;;;;32.17;20.27;;;13.90;99.90;;;;;;5051023;28;20563;-75
2022/05/17 02:01:45;;;;;;;36.15;19.83;;;13.90;99.90;;;;;;5052052;28;20403;-75
2022/05/17 02:04:11;;;;;;;31.60;19.98;;;13.90;99.90;;;;;;5043611;28;20407;-77
2022/05/17 02:06:37;;;;;;;31.08;20.25;;;13.90;99.90;;;;;;5034888;28;20401;-75
2022/05/17 02:09:04;;;;;;;34.83;21.23;;;13.90;99.90;;;;;;5033304;28;20383;-75
2022/05/17 02:11:29;;;;;;;33.95;20.35;;;13.90;99.90;;;;;;5030512;28;20495;-74
2022/05/17 02:13:55;;;;;;;33.42;21.08;;;13.90;99.90;;;;;;5031297;28;20495;-76
2022/05/17 02:16:21;;;;;;;41.43;21.60;;;13.90;99.90;;;;;;5032371;28;20399;-75
2022/05/17 02:18:46;;;;;;;33.77;20.93;;;13.90;99.90;;;;;;5032491;28;20403;-74
2022/05/17 02:21:12;;;;;;;34.05;21.05;;;13.90;99.90;;;;;;5030823;28;20461;-76
2022/05/17 02:23:38;;;;;;;32.50;20.40;;;13.90;99.90;;;;;;5031588;28;20411;-76
2022/05/17 02:26:04;;;;;;;39.30;21.30;;;13.90;99.90;;;;;;5031812;28;20888;-76
2022/05/17 02:28:29;;;;;;;32.93;21.17;;;13.80;99.90;;;;;;5033667;28;20395;-76
2022/05/17 02:30:55;;;;;;;31.70;20.63;;;13.80;99.90;;;;;;5034562;28;20739;-76
2022/05/17 02:33:20;;;;;;;35.20;21.55;;;13.90;99.90;;;;;;5036279;28;20410;-75
2022/05/17 02:35:46;;;;;;;36.28;20.25;;;13.90;99.90;;;;;;5040303;28;20407;-75
2022/05/17 02:38:11;;;;;;;34.93;20.63;;;13.90;99.90;;;;;;5047041;28;20411;-75
2022/05/17 02:40:37;;;;;;;31.97;20.40;;;13.90;99.90;;;;;;5045480;28;20503;-75
2022/05/17 02:43:04;;;;;;;33.13;19.37;;;13.90;99.90;;;;;;5045656;28;20403;-75
2022/05/17 02:45:29;;;;;;;33.35;19.52;;;13.80;99.90;;;;;;5037389;28;20399;-75
2022/05/17 02:47:55;;;;;;;34.80;19.27;;;13.90;99.90;;;;;;5032061;28;20455;-75
2022/05/17 02:50:21;;;;;;;29.98;19.50;;;13.90;99.90;;;;;;5032237;28;20403;-75
2022/05/17 02:52:47;;;;;;;28.92;19.50;;;14.00;99.90;;;;;;5031795;28;20764;-75
2022/05/17 02:55:13;;;;;;;31.05;19.50;;;13.90;99.90;;;;;;5028291;28;20461;-76
2022/05/17 02:57:39;;;;;;;34.30;19.77;;;13.90;99.90;;;;;;5032091;28;20788;-76
2022/05/17 03:00:08;;;;;;;28.95;19.23;;;13.80;99.90;;;;;;5032752;28;20399;-76
2022/05/17 03:02:34;;;;;;;31.60;20.13;;;13.80;99.90;;;;;;5032266;28;20407;-76
2022/05/17 03:04:59;;;;;;;31.47;19.47;;;13.70;99.90;;;;;;5030189;28;20456;-76
2022/05/17 03:07:25;;;;;;;31.53;20.10;;;13.80;99.90;;;;;;5049447;28;20399;-76
2022/05/17 03:09:51;;;;;;;30.85;19.85;;;13.70;99.90;;;;;;5034405;28;20410;-76
2022/05/17 03:12:16;;;;;;;35.70;20.50;;;13.70;99.90;;;;;;5035577;28;20403;-77
2022/05/17 03:14:43;;;;;;;26.83;18.40;;;13.70;99.90;;;;;;5032753;28;20407;-76
2022/05/17 03:17:13;;;;;;;29.10;18.50;;;13.70;99.90;;;;;;5037877;28;20405;-76
2022/05/17 03:19:39;;;;;;;35.83;18.83;;;13.70;99.90;;;;;;5034054;28;20399;-75
2022/05/17 03:22:05;;;;;;;32.92;19.65;;;13.70;99.90;;;;;;5037613;28;20422;-76
2022/05/17 03:24:31;;;;;;;28.97;19.93;;;13.80;99.90;;;;;;5030921;28;20418;-76
2022/05/17 03:26:57;;;;;;;34.75;19.92;;;13.70;99.90;;;;;;5032034;28;20398;-76
2022/05/17 03:29:23;;;;;;;29.70;18.85;;;13.70;99.90;;;;;;5031950;28;20403;-77
2022/05/17 03:31:49;;;;;;;33.10;19.20;;;13.70;99.90;;;;;;5031650;28;20470;-75
2022/05/17 03:34:14;;;;;;;30.77;19.07;;;13.70;99.90;;;;;;5031936;28;20436;-77
2022/05/17 03:36:40;;;;;;;31.25;19.30;;;13.70;99.90;;;;;;5031409;28;20493;-77
2022/05/17 03:39:05;;;;;;;30.15;18.75;;;13.70;99.90;;;;;;5030918;28;20765;-77
2022/05/17 03:41:31;;;;;;;30.40;19.48;;;13.70;99.90;;;;;;5032660;28;20811;-77
2022/05/17 03:43:56;;;;;;;32.70;19.70;;;13.80;99.90;;;;;;5031482;28;20481;-77
2022/05/17 03:46:22;;;;;;;31.27;18.50;;;13.80;99.90;;;;;;5033805;28;20434;-76
2022/05/17 03:48:48;;;;;;;29.35;18.70;;;13.80;99.90;;;;;;5027270;28;20456;-77
2022/05/17 03:51:15;;;;;;;31.98;18.58;;;13.90;99.90;;;;;;5030858;28;20900;-76
2022/05/17 03:53:42;;;;;;;25.98;17.45;;;13.90;99.90;;;;;;5031083;28;20410;-75
2022/05/17 03:56:08;;;;;;;30.70;18.83;;;14.00;99.90;;;;;;5031747;28;20443;-75
2022/05/17 03:58:33;;;;;;;27.52;17.35;;;14.00;99.90;;;;;;5032081;28;20407;-77
2022/05/17 04:00:59;;;;;;;26.10;18.40;;;14.10;99.90;;;;;;5030251;28;20419;-77
2022/05/17 04:03:25;;;;;;;26.47;17.40;;;14.20;99.90;;;;;;5029392;28;20904;-77
2022/05/17 04:05:50;;;;;;;30.10;17.10;;;14.30;99.90;;;;;;5031065;28;20415;-78
2022/05/17 04:08:16;;;;;;;28.47;16.73;;;14.40;99.90;;;;;;5031962;28;20403;-77
2022/05/17 04:10:41;;;;;;;29.25;17.55;;;14.40;99.90;;;;;;5031590;28;21166;-77
2022/05/17 04:13:07;;;;;;;25.58;17.75;;;14.50;99.90;;;;;;5036241;28;20399;-80
2022/05/17 04:15:32;;;;;;;30.40;16.90;;;14.60;99.90;;;;;;5032300;28;20407;-77
2022/05/17 04:17:58;;;;;;;28.83;17.40;;;14.70;99.90;;;;;;5035976;28;20395;-77
2022/05/17 04:20:25;;;;;;;27.90;17.37;;;14.80;99.90;;;;;;5034528;28;20850;-77
2022/05/17 04:22:52;;;;;;;24.80;17.17;;;14.80;99.90;;;;;;5034354;28;20450;-76
2022/05/17 04:25:28;;;;;;;31.63;17.00;;;15.00;99.90;;;;;;5035886;28;20846;-75
2022/05/17 04:27:54;;;;;;;31.75;17.92;;;15.10;99.90;;;;;;5036964;28;20411;-76
2022/05/17 04:30:21;;;;;;;23.87;16.10;;;15.20;99.90;;;;;;5034481;28;20399;-75
2022/05/17 04:32:48;;;;;;;28.92;16.70;;;15.20;99.90;;;;;;5028940;28;20486;-76
2022/05/17 04:35:15;;;;;;;24.00;16.88;;;15.30;99.80;;;;;;5029975;28;20411;-77
2022/05/17 04:37:40;;;;;;;21.83;16.40;;;15.40;96.90;;;;;;5030302;28;20402;-76
2022/05/17 04:40:13;;;;;;;23.90;15.40;;;15.50;95.30;;;;;;5029880;28;20526;-77
2022/05/17 04:42:40;;;;;;;27.20;16.95;;;15.60;93.30;;;;;;5029834;28;20402;-77
2022/05/17 04:45:08;;;;;;;30.52;15.65;;;15.80;90.30;;;;;;5030210;28;20912;-77
2022/05/17 04:47:38;;;;;;;23.52;15.55;;;15.80;90.90;;;;;;5029698;28;20394;-76
2022/05/17 04:50:04;;;;;;;22.45;15.00;;;15.90;90.00;;;;;;5020641;28;20400;-77
2022/05/17 04:52:31;;;;;;;21.65;15.20;;;15.90;88.20;;;;;;5034987;28;20442;-78
2022/05/17 04:54:57;;;;;;;21.88;15.23;;;16.00;86.90;;;;;;5012723;28;20733;-78
2022/05/17 04:57:23;;;;;;;23.13;15.10;;;16.00;86.20;;;;;;5039386;28;20399;-77
2022/05/17 04:59:50;;;;;;;26.80;16.67;;;16.00;85.40;;;;;;5034846;28;20414;-77
2022/05/17 05:02:16;;;;;;;28.00;15.48;;;16.00;86.60;;;;;;5030525;28;20425;-77
2022/05/17 05:04:42;;;;;;;23.42;14.95;;;16.00;86.10;;;;;;5033049;28;20899;-77
2022/05/17 05:07:09;;;;;;;25.25;15.60;;;16.00;85.80;;;;;;5036263;28;20900;-77
2022/05/17 05:09:35;;;;;;;24.25;14.93;;;16.10;83.90;;;;;;5036585;28;20407;-76
2022/05/17 05:12:23;;;;;;;23.87;15.53;;;16.20;84.00;;;;;;5034780;28;20397;-76
2022/05/17 05:14:49;;;;;;;27.60;15.10;;;16.20;83.50;;;;;;5044920;28;20411;-77
2022/05/17 05:17:15;;;;;;;24.48;15.30;;;16.20;82.30;;;;;;5032205;28;20403;-76
2022/05/17 05:19:47;;;;;;;20.20;14.50;;;16.30;81.80;;;;;;5033627;28;20923;-76
2022/05/17 05:22:15;;;;;;;24.40;14.50;;;16.40;80.80;;;;;;5015755;28;20416;-76
2022/05/17 05:25:01;;;;;;;22.93;15.53;;;16.50;79.90;;;;;;5035072;28;20509;-76
2022/05/17 05:28:13;;;;;;;27.77;15.13;;;16.60;78.00;;;;;;5032327;28;20474;-76
2022/05/17 05:31:03;;;;;;;23.27;15.30;;;16.70;76.50;;;;;;5036424;28;20457;-76
2022/05/17 05:36:59;;;;;;;23.42;15.68;;;16.90;73.60;;;;;;5041954;28;20415;-77
2022/05/17 05:42:51;;;;;;;24.65;14.68;;;17.10;71.80;;;;;;5038417;28;20395;-76
2022/05/17 05:45:17;;;;;;;25.80;14.30;;;17.20;69.90;;;;;;5037625;28;20412;-77
2022/05/17 05:47:45;;;;;;;23.00;14.52;;;17.20;69.10;;;;;;5042348;28;20919;-76
2022/05/17 05:50:11;;;;;;;24.00;15.07;;;17.30;68.60;;;;;;5034992;28;20410;-76
2022/05/17 05:52:37;;;;;;;24.23;14.90;;;17.30;68.70;;;;;;5042474;28;20537;-77
2022/05/17 05:55:04;;;;;;;21.05;14.45;;;17.40;69.00;;;;;;5040276;28;20411;-77
2022/05/17 05:57:29;;;;;;;26.85;14.60;;;17.50;68.80;;;;;;5043881;28;20427;-77
2022/05/17 05:59:56;;;;;;;20.55;14.57;;;17.60;67.50;;;;;;5037284;28;20509;-76
2022/05/17 06:02:25;;;;;;;26.90;15.10;;;17.60;67.70;;;;;;5036827;28;20441;-77
2022/05/17 06:04:51;;;;;;;21.90;14.45;;;17.80;66.00;;;;;;5039398;28;20403;-78
2022/05/17 06:07:18;;;;;;;33.75;15.18;;;17.90;65.90;;;;;;5044985;28;20391;-77
2022/05/17 06:09:45;;;;;;;23.42;14.50;;;17.90;63.80;;;;;;5045865;28;20414;-77
2022/05/17 06:12:15;;;;;;;26.65;13.98;;;18.00;61.60;;;;;;5044815;28;20724;-77
2022/05/17 06:14:43;;;;;;;22.10;15.43;;;18.00;61.70;;;;;;5042372;28;20411;-78
2022/05/17 06:17:11;;;;;;;20.38;14.52;;;18.20;59.30;;;;;;5039912;28;20987;-78
2022/05/17 06:19:39;;;;;;;21.75;13.90;;;18.30;58.80;;;;;;5023390;28;20409;-78
2022/05/17 06:22:09;;;;;;;24.20;14.35;;;18.30;58.80;;;;;;5042198;28;20433;-78
2022/05/17 06:24:50;;;;;;;21.58;14.27;;;18.60;55.50;;;;;;5046279;28;20399;-78
2022/05/17 06:27:27;;;;;;;22.83;14.10;;;18.60;54.40;;;;;;5046278;28;20403;-79
2022/05/17 06:29:53;;;;;;;27.25;14.55;;;18.70;54.70;;;;;;5028835;28;20421;-76
2022/05/17 06:32:19;;;;;;;22.65;13.52;;;18.80;54.00;;;;;;5035297;28;20423;-76
2022/05/17 06:34:45;;;;;;;24.40;12.90;;;18.80;52.80;;;;;;5037133;28;20765;-75
2022/05/17 06:37:11;;;;;;;22.10;13.23;;;18.80;51.90;;;;;;5038279;28;20789;-77
2022/05/17 06:39:38;;;;;;;26.13;13.02;;;18.80;51.90;;;;;;5035783;28;20414;-76
2022/05/17 06:42:04;;;;;;;21.90;13.77;;;18.90;52.20;;;;;;5034442;28;20477;-74
2022/05/17 06:44:30;;;;;;;20.52;12.80;;;19.00;50.70;;;;;;5033061;28;20908;-76
2022/05/17 06:46:58;;;;;;;23.30;13.57;;;19.00;50.30;;;;;;5031626;28;20512;-75
2022/05/17 06:49:25;;;;;;;21.52;12.77;;;19.00;49.90;;;;;;5027734;28;20410;-76
2022/05/17 06:51:51;;;;;;;24.85;13.43;;;19.00;50.90;;;;;;5031421;28;20494;-76
2022/05/17 06:54:16;;;;;;;24.50;15.35;;;19.10;49.00;;;;;;5032112;28;22593;-76
2022/05/17 06:56:42;;;;;;;21.40;12.20;;;19.20;49.30;;;;;;5038797;28;20456;-77
2022/05/17 06:59:08;;;;;;;22.07;13.20;;;19.20;50.00;;;;;;5039139;28;20417;-79
2022/05/17 07:01:34;;;;;;;26.30;13.43;;;19.20;48.20;;;;;;5029758;28;20915;-78
2022/05/17 07:03:59;;;;;;;19.80;13.00;;;19.40;46.90;;;;;;5029807;28;20413;-78
2022/05/17 07:06:25;;;;;;;21.92;12.23;;;19.50;46.70;;;;;;5030250;28;20438;-78
2022/05/17 07:08:52;;;;;;;24.00;12.02;;;19.80;44.30;;;;;;5027999;28;20426;-78
2022/05/17 07:14:02;;;;;;;30.00;12.67;;;20.80;38.90;;;;;;5026202;28;20473;-78
2022/05/17 07:16:29;;;;;;;25.67;12.07;;;21.00;37.20;;;;;;5029373;28;20929;-77
2022/05/17 07:18:54;;;;;;;26.25;11.40;;;21.10;36.80;;;;;;5027093;28;20541;-77
2022/05/17 07:21:20;;;;;;;21.85;11.70;;;21.10;36.20;;;;;;5013500;28;20492;-78
2022/05/17 07:23:46;;;;;;;25.52;11.43;;;21.20;36.00;;;;;;5035078;28;20407;-78
2022/05/17 07:26:13;;;;;;;26.67;11.90;;;21.20;35.30;;;;;;5026345;28;20409;-77
2022/05/17 07:28:45;;;;;;;22.70;11.90;;;21.40;34.60;;;;;;5032665;28;20645;-77
2022/05/17 07:31:11;;;;;;;21.93;11.27;;;21.50;35.30;;;;;;5022104;28;20414;-77
2022/05/17 07:33:37;;;;;;;31.15;12.35;;;21.70;34.90;;;;;;5025628;28;20760;-76
2022/05/17 07:36:07;;;;;;;22.02;11.57;;;21.70;33.90;;;;;;5008778;28;20414;-78
2022/05/17 07:38:35;;;;;;;21.65;11.43;;;21.80;33.10;;;;;;5025747;28;20768;-78
2022/05/17 07:41:03;;;;;;;18.50;11.07;;;21.70;32.90;;;;;;5012620;28;20949;-78
2022/05/17 07:43:29;;;;;;;19.02;10.80;;;21.50;34.10;;;;;;5028125;28;20454;-75
2022/05/17 07:45:55;;;;;;;23.45;12.48;;;21.50;34.50;;;;;;5032230;28;20402;-76
2022/05/17 07:48:22;;;;;;;20.30;11.27;;;21.30;34.40;;;;;;5028725;28;20409;-78
2022/05/17 07:50:49;;;;;;;24.50;12.60;;;21.30;34.90;;;;;;5030307;28;20414;-78
2022/05/17 07:53:16;;;;;;;20.90;12.45;;;21.20;35.30;;;;;;5033628;28;20411;-78
2022/05/17 07:55:43;;;;;;;19.52;11.00;;;21.30;35.40;;;;;;5040244;28;20407;-77
2022/05/17 07:58:10;;;;;;;21.98;11.27;;;21.30;35.40;;;;;;5042861;28;20379;-78
2022/05/17 08:00:38;;;;;;;23.92;12.90;;;21.40;34.80;;;;;;5039756;28;20436;-79
2022/05/17 08:03:05;;;;;;;18.52;11.70;;;21.60;34.90;;;;;;5031659;28;20780;-79
2022/05/17 08:05:32;;;;;;;20.88;11.75;;;22.00;33.90;;;;;;5053989;23;20442;-80
2022/05/17 08:07:57;;;;;;;19.52;10.75;;;22.20;31.80;;;;;;5038559;28;20418;-80
2022/05/17 08:10:24;;;;;;;19.88;10.68;;;22.60;30.90;;;;;;5039724;28;20518;-80
2022/05/17 08:12:50;;;;;;;20.23;11.15;;;22.80;28.80;;;;;;5035516;28;20953;-78
2022/05/17 08:15:17;;;;;;;19.30;11.30;;;23.10;27.50;;;;;;5028252;28;20414;-78
2022/05/17 08:17:42;;;;;;;19.67;10.80;;;23.20;27.20;;;;;;5020466;28;20412;-80
2022/05/17 08:20:11;;;;;;;20.65;10.55;;;23.40;27.10;;;;;;5015939;28;20505;-78
2022/05/17 08:22:39;;;;;;;23.95;10.50;;;23.60;26.10;;;;;;5019485;28;20516;-80
2022/05/17 08:27:50;;;;;;;21.95;10.75;;;24.00;25.10;;;;;;5009012;28;20424;-79
2022/05/17 08:30:19;;;;;;;23.90;10.25;;;24.30;23.40;;;;;;5016812;28;20400;-78
2022/05/17 08:35:30;;;;;;;20.03;11.37;;;24.10;22.40;;;;;;5016888;28;20438;-79
2022/05/17 08:37:56;;;;;;;22.90;10.80;;;24.00;22.20;;;;;;5018750;28;20412;-78
2022/05/17 08:40:23;;;;;;;23.50;11.50;;;24.00;22.50;;;;;;5014336;28;20474;-78
2022/05/17 08:43:16;;;;;;;27.90;11.40;;;24.00;21.80;;;;;;5020671;28;20462;-78
2022/05/17 08:46:07;;;;;;;21.75;12.10;;;24.20;21.60;;;;;;5018965;28;20423;-77
2022/05/17 08:49:05;;;;;;;22.02;10.90;;;24.50;21.10;;;;;;5021366;28;20415;-78
2022/05/17 08:51:41;;;;;;;21.88;10.48;;;24.80;20.70;;;;;;5033187;28;20406;-79
2022/05/17 08:54:10;;;;;;;20.85;10.52;;;25.10;19.20;;;;;;5019853;28;20495;-80
2022/05/17 08:56:40;;;;;;;19.52;9.85;;;25.30;18.70;;;;;;5018477;28;20440;-80
2022/05/17 08:59:06;;;;;;;21.58;10.32;;;25.20;18.20;;;;;;5018594;28;20438;-80
2022/05/17 09:01:45;;;;;;;18.63;10.00;;;25.30;18.60;;;;;;5016763;28;20410;-80
2022/05/17 09:04:46;;;;;;;25.57;9.30;;;25.50;18.40;;;;;;5019125;28;20423;-79
2022/05/17 09:07:20;;;;;;;21.20;7.88;;;25.60;17.20;;;;;;5015013;28;20401;-80
2022/05/17 09:10:02;;;;;;;16.80;8.10;;;25.60;16.30;;;;;;5023256;28;20463;-79
2022/05/17 09:12:52;;;;;;;16.33;8.52;;;25.60;16.60;;;;;;5019160;28;20570;-79
2022/05/17 09:15:19;;;;;;;11.20;6.90;;;25.40;16.60;;;;;;5018432;28;20412;-79
2022/05/17 09:17:45;;;;;;;14.27;6.70;;;25.40;15.50;;;;;;5014927;28;20413;-77
2022/05/17 09:20:18;;;;;;;13.50;6.40;;;25.40;16.10;;;;;;5031114;28;20406;-77
2022/05/17 09:22:44;;;;;;;12.98;6.30;;;25.40;16.40;;;;;;5030036;28;20500;-79
2022/05/17 09:25:20;;;;;;;9.90;4.60;;;25.40;16.10;;;;;;5020160;28;20519;-78
2022/05/17 09:27:49;;;;;;;8.75;5.00;;;25.30;15.10;;;;;;5020719;28;20500;-79
2022/05/17 09:30:33;;;;;;;15.17;5.40;;;25.20;15.10;;;;;;5020237;28;20400;-79
2022/05/17 09:33:11;;;;;;;17.02;5.10;;;25.00;15.00;;;;;;5027023;28;20502;-80
2022/05/17 09:35:53;;;;;;;16.48;7.35;;;25.00;15.50;;;;;;5022536;28;20917;-78
2022/05/17 09:38:19;;;;;;;14.25;5.95;;;24.80;17.70;;;;;;5018565;28;20415;-78
2022/05/17 09:40:48;;;;;;;13.10;5.80;;;24.90;17.10;;;;;;5021697;28;20480;-78
2022/05/17 09:43:16;;;;;;;14.20;6.05;;;24.90;17.70;;;;;;5030147;28;20404;-77
2022/05/17 09:45:55;;;;;;;16.95;7.82;;;24.80;17.40;;;;;;5038080;28;20421;-79
2022/05/17 09:54:41;;;;;;;10.32;5.93;;;25.40;16.40;;;;;;5021443;28;20429;-81
2022/05/17 09:57:19;;;;;;;12.77;5.13;;;25.50;15.90;;;;;;5017133;28;20916;-79
2022/05/17 09:59:46;;;;;;;11.70;5.87;;;25.40;16.10;;;;;;5035382;28;20470;-80
2022/05/17 10:02:32;;;;;;;12.18;5.90;;;25.10;16.90;;;;;;5018101;28;20493;-80
2022/05/17 10:05:13;;;;;;;15.82;6.20;;;25.00;16.40;;;;;;5012572;28;20900;-76
2022/05/17 10:07:39;;;;;;;18.17;6.60;;;25.10;16.70;;;;;;5022157;28;20408;-81
2022/05/17 10:10:29;;;;;;;14.05;6.65;;;25.10;16.90;;;;;;5020871;28;20877;-78
2022/05/17 10:13:23;;;;;;;21.55;5.85;;;25.20;17.50;;;;;;5018504;28;20408;-78
2022/05/17 10:15:54;;;;;;;15.00;6.82;;;25.40;17.40;;;;;;5018009;28;20900;-80
2022/05/17 10:18:26;;;;;;;15.53;6.10;;;25.50;17.20;;;;;;5007913;28;20408;-77
2022/05/17 10:20:56;;;;;;;11.40;5.55;;;25.50;16.10;;;;;;5018231;28;20408;-76
2022/05/17 10:23:30;;;;;;;12.95;5.40;;;25.30;17.40;;;;;;5010199;28;20408;-77
2022/05/17 10:26:18;;;;;;;13.18;5.50;;;25.40;17.80;;;;;;5012058;28;20420;-77
2022/05/17 10:29:06;;;;;;;11.40;5.30;;;25.40;18.60;;;;;;5022308;28;20413;-76
2022/05/17 10:31:47;;;;;;;16.55;5.40;;;25.70;17.30;;;;;;5008836;28;20467;-76
2022/05/17 10:34:52;;;;;;;20.95;5.90;;;25.80;16.60;;;;;;5012193;28;20468;-75
2022/05/17 10:37:21;;;;;;;11.70;4.80;;;26.00;16.70;;;;;;5007419;28;20405;-75
2022/05/17 10:40:03;;;;;;;18.45;5.10;;;26.20;16.20;;;;;;5015534;28;20412;-75
2022/05/17 10:42:29;;;;;;;6.85;4.10;;;26.20;16.20;;;;;;5012284;28;20401;-76
2022/05/17 10:44:56;;;;;;;9.13;4.78;;;26.30;15.60;;;;;;5011117;28;20413;-75
2022/05/17 10:47:25;;;;;;;13.05;4.20;;;26.40;15.20;;;;;;5006710;28;20408;-76
2022/05/17 10:50:10;;;;;;;13.50;4.55;;;26.40;14.70;;;;;;5007145;28;20408;-75
2022/05/17 10:52:51;;;;;;;13.55;4.78;;;26.40;14.90;;;;;;5012203;28;20429;-75
2022/05/17 10:55:28;;;;;;;11.88;4.38;;;26.30;15.30;;;;;;5001696;28;20414;-75
2022/05/17 10:58:03;;;;;;;8.68;3.75;;;26.40;14.80;;;;;;4998846;28;20413;-76
2022/05/17 11:00:39;;;;;;;10.10;3.73;;;26.50;14.00;;;;;;5000613;28;20485;-76
2022/05/17 11:03:32;;;;;;;7.88;3.42;;;26.60;14.10;;;;;;5005899;28;20411;-76
2022/05/17 11:06:26;;;;;;;12.82;3.85;;;26.60;13.50;;;;;;5007806;28;20420;-76
2022/05/17 11:09:26;;;;;;;14.13;3.20;;;26.70;13.80;;;;;;5006855;28;20943;-75
2022/05/17 11:11:52;;;;;;;7.97;3.10;;;26.90;13.60;;;;;;5003702;28;20411;-75
2022/05/17 11:14:25;;;;;;;8.27;3.10;;;27.10;12.10;;;;;;5004854;28;20405;-76
2022/05/17 11:16:57;;;;;;;9.02;3.78;;;27.20;13.20;;;;;;5006044;28;20401;-75
2022/05/17 11:19:32;;;;;;;15.63;3.55;;;27.40;11.30;;;;;;5005524;28;20928;-75
2022/05/17 11:22:15;;;;;;;11.13;3.70;;;27.50;11.60;;;;;;5009755;28;20432;-75
2022/05/17 11:25:00;;;;;;;7.75;3.60;;;27.10;12.60;;;;;;5005471;28;20406;-77
2022/05/17 11:27:50;;;;;;;7.55;3.38;;;26.70;12.80;;;;;;5004042;28;20889;-74
2022/05/17 11:30:21;;;;;;;13.23;3.40;;;26.30;14.80;;;;;;5004134;28;20407;-75
2022/05/17 11:33:08;;;;;;;11.40;3.05;;;26.30;14.80;;;;;;5007307;28;20405;-79
2022/05/17 11:35:34;;;;;;;6.75;3.03;;;26.00;14.40;;;;;;5015223;28;20422;-78
2022/05/17 11:38:04;;;;;;;9.32;3.65;;;25.80;14.60;;;;;;5018589;28;20420;-76
2022/05/17 11:40:42;;;;;;;7.70;3.10;;;25.40;15.60;;;;;;5011319;28;20412;-79
2022/05/17 11:45:55;;;;;;;7.85;2.80;;;25.00;15.10;;;;;;5008220;28;20420;-75
2022/05/17 11:48:43;;;;;;;5.00;2.80;;;24.80;15.70;;;;;;5003734;28;20474;-75
2022/05/17 11:51:09;;;;;;;8.88;2.97;;;24.80;16.20;;;;;;5004300;28;20427;-76
2022/05/17 11:53:50;;;;;;;4.70;2.30;;;25.00;15.10;;;;;;5006654;28;20416;-76
2022/05/17 11:56:33;;;;;;;13.03;3.20;;;25.10;14.60;;;;;;5007959;28;20770;-75
2022/05/17 11:59:13;;;;;;;3.70;2.00;;;25.10;14.50;;;;;;5005319;28;20405;-75
2022/05/17 12:01:39;;;;;;;8.55;2.15;;;25.40;13.90;;;;;;5010354;28;20443;-77
2022/05/17 12:04:20;;;;;;;5.10;2.13;;;25.70;13.00;;;;;;5012275;28;20476;-77
2022/05/17 12:06:48;;;;;;;7.05;2.08;;;26.20;12.00;;;;;;5016705;28;20769;-77
2022/05/17 12:09:20;;;;;;;10.45;2.40;;;26.60;10.60;;;;;;5015089;28;20405;-75
2022/05/17 12:12:14;;;;;;;8.07;1.93;;;27.10;9.90;;;;;;5010326;28;20404;-76
2022/05/17 12:14:51;;;;;;;4.43;1.83;;;27.50;9.10;;;;;;5010862;28;20452;-78
2022/05/17 12:17:26;;;;;;;5.68;2.00;;;27.90;8.60;;;;;;5000930;28;20418;-75
2022/05/17 12:20:01;;;;;;;5.93;2.50;;;28.10;10.00;;;;;;5009683;28;20417;-77
2022/05/17 12:23:05;;;;;;;7.40;2.70;;;28.30;10.20;;;;;;5007444;28;20401;-77
2022/05/17 12:26:06;;;;;;;7.40;2.90;;;28.60;9.70;;;;;;4997343;28;20880;-75
2022/05/17 12:28:46;;;;;;;7.03;3.13;;;28.80;9.80;;;;;;5008291;28;20408;-76
2022/05/17 12:31:19;;;;;;;7.65;3.08;;;29.00;9.50;;;;;;5012507;28;20408;-76
2022/05/17 12:33:47;;;;;;;9.13;2.90;;;28.90;9.40;;;;;;5011421;28;20408;-76
2022/05/17 12:36:16;;;;;;;8.55;2.78;;;29.10;9.80;;;;;;5012359;28;20414;-77
2022/05/17 12:44:23;;;;;;;9.32;2.70;;;29.50;9.50;;;;;;5009598;28;20778;-76
2022/05/17 12:46:52;;;;;;;5.70;2.50;;;29.50;9.20;;;;;;5011094;28;20394;-76
2022/05/17 12:49:19;;;;;;;5.95;2.42;;;29.30;8.80;;;;;;5012275;28;20400;-77
2022/05/17 12:51:50;;;;;;;4.90;2.50;;;29.20;10.10;;;;;;5012984;28;20759;-77
2022/05/17 12:54:20;;;;;;;3.85;2.40;;;29.40;10.00;;;;;;5015113;28;20495;-76
2022/05/17 12:56:47;;;;;;;5.72;2.70;;;29.30;9.80;;;;;;5006023;28;20402;-76
2022/05/17 12:59:21;;;;;;;6.75;2.70;;;29.30;9.70;;;;;;5010899;28;20922;-76
2022/05/17 13:01:57;;;;;;;8.40;2.40;;;29.30;9.10;;;;;;5013999;28;20404;-76
2022/05/17 13:04:36;;;;;;;5.30;2.50;;;29.30;9.60;;;;;;5002962;28;20842;-76
2022/05/17 13:07:17;;;;;;;7.65;2.40;;;29.40;9.70;;;;;;5006283;28;20416;-76
2022/05/17 13:09:59;;;;;;;5.90;2.70;;;29.40;8.90;;;;;;4995975;28;20418;-76
2022/05/17 13:12:28;;;;;;;4.88;2.00;;;29.40;9.20;;;;;;5011010;28;20982;-76
2022/05/17 13:14:54;;;;;;;6.90;2.60;;;29.40;9.00;;;;;;5010474;28;20955;-76
2022/05/17 13:17:23;;;;;;;5.53;2.17;;;29.10;8.80;;;;;;5011844;28;20462;-76
2022/05/17 13:19:54;;;;;;;6.40;2.60;;;29.30;9.00;;;;;;5003017;28;20566;-77
2022/05/17 13:22:23;;;;;;;9.70;2.20;;;29.60;8.70;;;;;;5006533;28;20955;-75